Weather at Oserongoni Airport

Public forecast

Using degrees Celsius for public forecast. Weather courtesy of forecast.io.

Closest aviation weather report (METAR) to Oserongoni Airport

Closest report is Nakuru Airport, 32.2 nm (59.7 km) NNW.

2024/05/29 12:00 (retrieved 41 minutes ago)

HKNK 291200Z 26006KT 9999 FEW027CB BKN028 26/13

Closest aviation forecast (TAF) to Oserongoni Airport

Closest forecast is Nairobi Wilson Airport, 43.7 nm (81.0 km) SE.

2024/05/29 12:18 (retrieved 23 minutes ago)

TAF HKNW 291100Z 2912/3012 18005KT 9999 BKN024 BECMG 2920/2923 VRB02KT BKN020 BECMG 3008/3011 24010KT BKN025